createdAt,value
2023-03-17T00:08:38.306Z,83.00
2023-03-17T00:11:28.261Z,84.00
2023-03-17T00:14:17.027Z,84.10
2023-03-17T00:17:06.057Z,84.10
2023-03-17T00:19:53.880Z,84.20
2023-03-17T00:22:41.345Z,84.30
2023-03-17T00:25:31.445Z,84.50
2023-03-17T00:28:21.366Z,84.70
2023-03-17T00:31:15.778Z,84.80
2023-03-17T00:34:04.974Z,85.00
2023-03-17T00:36:54.810Z,85.10
2023-03-17T00:39:43.933Z,85.20
2023-03-17T00:42:31.855Z,85.30
2023-03-17T00:45:21.675Z,85.30
2023-03-17T00:48:16.542Z,85.50
2023-03-17T00:51:06.350Z,85.60
2023-03-17T00:53:54.059Z,86.60
2023-03-17T00:56:44.240Z,85.80
2023-03-17T00:59:39.538Z,86.00
2023-03-17T01:02:31.582Z,86.20
2023-03-17T01:05:22.698Z,86.20
2023-03-17T01:08:12.614Z,86.30
2023-03-17T01:11:02.599Z,86.40
2023-03-17T01:13:50.096Z,86.40
2023-03-17T01:16:38.995Z,86.60
2023-03-17T01:19:27.450Z,86.70
2023-03-17T01:22:15.346Z,86.90
2023-03-17T01:25:05.258Z,87.00
2023-03-17T01:27:53.686Z,87.10
2023-03-17T01:30:42.759Z,87.10
2023-03-17T01:33:30.671Z,87.20
2023-03-17T01:36:18.338Z,87.40
2023-03-17T01:39:07.786Z,87.40
2023-03-17T01:42:01.589Z,87.40
2023-03-17T01:45:07.423Z,87.50
2023-03-17T01:47:54.902Z,87.60
2023-03-17T01:50:43.891Z,87.90
2023-03-17T01:53:32.527Z,88.10
2023-03-17T01:56:21.946Z,88.20
2023-03-17T01:59:16.152Z,88.40
2023-03-17T02:02:09.494Z,88.50
2023-03-17T02:04:56.940Z,88.60
2023-03-17T02:07:45.211Z,88.20
2023-03-17T02:10:33.898Z,88.60
2023-03-17T02:13:22.271Z,89.60
2023-03-17T02:16:19.541Z,88.80
2023-03-17T02:19:08.820Z,88.90
2023-03-17T02:21:59.709Z,89.00
2023-03-17T02:24:50.685Z,89.20
2023-03-17T02:27:41.742Z,89.40
2023-03-17T02:30:30.432Z,89.60
2023-03-17T02:33:17.970Z,89.70
2023-03-17T02:36:06.505Z,89.70
2023-03-17T02:38:56.056Z,89.90
2023-03-17T02:41:43.854Z,90.00
2023-03-17T02:44:33.537Z,90.00
2023-03-17T02:47:22.470Z,90.10
2023-03-17T02:50:19.534Z,90.20
2023-03-17T02:53:08.420Z,90.20
2023-03-17T02:55:58.208Z,90.20
2023-03-17T02:58:46.732Z,90.30
2023-03-17T03:01:35.924Z,90.30
2023-03-17T03:04:26.771Z,90.30
2023-03-17T03:07:14.680Z,90.40
2023-03-17T03:10:02.575Z,90.50
2023-03-17T03:12:52.520Z,90.50
2023-03-17T03:15:44.157Z,90.60
2023-03-17T03:18:31.434Z,90.60
2023-03-17T03:21:20.171Z,90.50
2023-03-17T03:24:08.893Z,90.50
2023-03-17T03:26:56.706Z,90.50
2023-03-17T03:29:46.618Z,90.50
2023-03-17T03:32:34.348Z,90.60
2023-03-17T03:35:22.490Z,90.50
2023-03-17T03:38:10.751Z,90.60
2023-03-17T03:40:58.290Z,90.60
2023-03-17T03:43:46.516Z,90.60
2023-03-17T03:46:36.192Z,90.60
2023-03-17T03:49:24.592Z,90.70
2023-03-17T03:52:12.620Z,90.70
2023-03-17T03:55:00.336Z,90.70
2023-03-17T03:57:48.045Z,90.80
2023-03-17T04:00:35.949Z,90.80
2023-03-17T04:03:25.149Z,90.80
2023-03-17T04:06:12.968Z,90.70
2023-03-17T04:09:00.601Z,90.80
2023-03-17T04:11:48.641Z,90.70
2023-03-17T04:14:37.013Z,90.70
2023-03-17T04:17:24.917Z,90.80
2023-03-17T04:20:16.368Z,90.80
2023-03-17T04:23:04.370Z,90.80
2023-03-17T04:25:53.776Z,90.80
2023-03-17T04:28:41.437Z,90.80
2023-03-17T04:31:29.451Z,90.70
2023-03-17T04:34:20.006Z,90.70
2023-03-17T04:37:09.481Z,90.80
2023-03-17T04:39:56.990Z,90.70
2023-03-17T04:42:45.004Z,90.70
2023-03-17T04:45:32.865Z,90.70
2023-03-17T04:48:21.567Z,90.40
2023-03-17T04:51:11.684Z,90.70
2023-03-17T04:54:01.952Z,90.70
2023-03-17T04:56:49.992Z,90.70
2023-03-17T04:59:37.788Z,90.70
2023-03-17T05:02:26.512Z,90.70
2023-03-17T05:05:14.412Z,90.70
2023-03-17T05:08:01.824Z,90.70
2023-03-17T05:10:51.384Z,90.70
2023-03-17T05:13:41.220Z,90.70
2023-03-17T05:16:28.694Z,90.40
2023-03-17T05:19:16.551Z,90.80
2023-03-17T05:22:04.264Z,90.80
2023-03-17T05:24:51.735Z,90.90
2023-03-17T05:27:41.158Z,90.90
2023-03-17T05:30:28.807Z,90.90
2023-03-17T05:33:16.971Z,90.90
2023-03-17T05:36:05.096Z,90.90
2023-03-17T05:38:53.422Z,90.90
2023-03-17T05:41:41.354Z,90.90
2023-03-17T05:44:30.453Z,91.00
2023-03-17T05:47:18.631Z,91.00
2023-03-17T05:50:08.392Z,91.00
2023-03-17T05:52:56.470Z,91.00
2023-03-17T05:55:44.464Z,91.10
2023-03-17T05:58:32.076Z,91.00
2023-03-17T06:01:21.386Z,91.00
2023-03-17T06:04:09.731Z,91.00
2023-03-17T06:06:58.102Z,91.00
2023-03-17T06:09:45.854Z,90.90
2023-03-17T06:12:34.052Z,90.90
2023-03-17T06:15:22.265Z,90.80
2023-03-17T06:18:12.060Z,90.80
2023-03-17T06:20:59.818Z,90.70
2023-03-17T06:23:47.567Z,90.70
2023-03-17T06:26:35.634Z,90.60
2023-03-17T06:29:23.629Z,90.50
2023-03-17T06:32:20.389Z,90.40
2023-03-17T06:35:10.905Z,90.40
2023-03-17T06:37:59.366Z,90.40
2023-03-17T06:40:47.896Z,90.40
2023-03-17T06:43:36.657Z,90.30
2023-03-17T06:46:24.959Z,90.20
2023-03-17T06:49:14.061Z,90.10
2023-03-17T06:52:03.459Z,90.40
2023-03-17T06:54:51.863Z,90.10
2023-03-17T06:57:39.656Z,90.00
2023-03-17T07:00:28.061Z,90.00
2023-03-17T07:03:16.469Z,89.90
2023-03-17T07:06:04.324Z,89.80
2023-03-17T07:08:53.908Z,89.50
2023-03-17T07:11:41.654Z,89.30
2023-03-17T07:14:29.914Z,89.10
2023-03-17T07:17:18.901Z,88.90
2023-03-17T07:20:07.733Z,88.50
2023-03-17T07:22:55.049Z,88.40
2023-03-17T07:25:45.627Z,88.10
2023-03-17T07:28:32.897Z,87.60
2023-03-17T07:31:20.220Z,87.50
2023-03-17T07:34:08.139Z,87.10
2023-03-17T07:36:56.177Z,87.10
2023-03-17T07:39:44.834Z,86.50
2023-03-17T07:42:34.648Z,86.00
2023-03-17T07:45:25.856Z,85.80
2023-03-17T07:48:13.760Z,85.50
2023-03-17T07:51:02.078Z,85.00
2023-03-17T07:53:51.190Z,84.60
2023-03-17T07:56:39.608Z,84.20
2023-03-17T07:59:29.336Z,83.60
2023-03-17T08:02:19.841Z,83.00
2023-03-17T08:05:09.346Z,82.50
2023-03-17T08:07:57.011Z,82.10
2023-03-17T08:10:45.136Z,81.30
2023-03-17T08:13:33.483Z,80.80
2023-03-17T08:16:22.568Z,80.00
2023-03-17T08:19:11.226Z,79.10
2023-03-17T08:21:59.111Z,78.60
2023-03-17T08:24:46.123Z,77.90
2023-03-17T08:27:33.980Z,77.40
2023-03-17T08:30:21.973Z,77.20
2023-03-17T08:33:10.568Z,76.70
2023-03-17T08:35:58.008Z,75.80
2023-03-17T08:38:47.024Z,75.10
2023-03-17T08:41:34.144Z,74.40
2023-03-17T08:44:23.917Z,73.60
2023-03-17T08:47:11.365Z,72.80
2023-03-17T08:50:01.089Z,72.30
2023-03-17T08:52:49.018Z,71.40
2023-03-17T08:55:37.064Z,70.80
2023-03-17T08:58:25.308Z,70.00
2023-03-17T09:01:13.029Z,69.40
2023-03-17T09:04:00.210Z,68.90
2023-03-17T09:07:02.201Z,68.00
2023-03-17T09:09:50.995Z,67.10
2023-03-17T09:12:39.598Z,66.50
2023-03-17T09:15:26.932Z,65.40
2023-03-17T09:18:14.960Z,64.40
2023-03-17T09:21:03.811Z,63.40
2023-03-17T09:23:56.968Z,62.50
2023-03-17T09:26:44.588Z,61.50
2023-03-17T09:29:36.849Z,60.10
2023-03-17T09:32:24.753Z,58.90
2023-03-17T09:35:13.233Z,58.50
2023-03-17T09:38:01.295Z,57.90
2023-03-17T09:40:56.551Z,57.00
2023-03-17T09:43:59.004Z,56.90
2023-03-17T09:49:48.537Z,54.70
2023-03-17T09:52:41.044Z,55.30
2023-03-17T09:55:34.463Z,53.80
2023-03-17T09:58:34.156Z,52.90
2023-03-17T10:01:25.214Z,52.00
2023-03-17T10:04:18.866Z,51.60
2023-03-17T10:07:11.216Z,49.60
2023-03-17T10:10:03.903Z,47.50
2023-03-17T10:13:08.481Z,45.50
2023-03-17T10:16:05.512Z,44.40
2023-03-17T10:19:00.137Z,43.90
2023-03-17T10:21:54.375Z,42.60
2023-03-17T10:24:47.946Z,40.90
2023-03-17T10:27:39.058Z,39.80
2023-03-17T10:30:27.824Z,38.20
2023-03-17T10:33:17.519Z,37.90
2023-03-17T10:36:10.966Z,37.00
2023-03-17T10:38:58.073Z,36.50
2023-03-17T10:41:54.779Z,35.50
2023-03-17T10:44:46.148Z,36.10
2023-03-17T10:47:35.814Z,36.00
2023-03-17T10:50:28.855Z,35.50
2023-03-17T10:53:28.472Z,34.50
2023-03-17T10:56:24.645Z,35.90
2023-03-17T10:59:20.754Z,35.90
2023-03-17T11:02:19.695Z,34.80
2023-03-17T11:05:19.928Z,33.80
2023-03-17T11:08:16.567Z,34.60
2023-03-17T11:11:08.667Z,34.10
2023-03-17T11:14:04.967Z,36.20
2023-03-17T11:16:57.173Z,36.50
2023-03-17T11:19:55.089Z,36.40
2023-03-17T11:22:46.922Z,37.80
2023-03-17T11:25:39.633Z,38.60
2023-03-17T11:28:32.463Z,38.10
2023-03-17T11:31:28.812Z,38.70
2023-03-17T11:34:23.725Z,39.60
2023-03-17T11:37:23.145Z,41.60
2023-03-17T11:40:19.584Z,40.80
2023-03-17T11:43:24.697Z,42.20
2023-03-17T11:46:17.168Z,41.50
2023-03-17T11:49:15.216Z,41.60
2023-03-17T11:52:07.781Z,41.60
2023-03-17T11:55:04.791Z,41.40
2023-03-17T11:57:58.281Z,41.40
2023-03-17T12:00:51.080Z,41.60
2023-03-17T12:03:46.824Z,41.70
2023-03-17T12:06:39.746Z,42.10
2023-03-17T12:09:32.379Z,42.50
2023-03-17T12:12:32.184Z,42.70
2023-03-17T12:15:29.911Z,43.40
2023-03-17T12:18:22.758Z,43.90
2023-03-17T12:21:21.917Z,43.80
2023-03-17T12:24:14.902Z,43.70
2023-03-17T12:27:09.054Z,44.80
2023-03-17T12:30:00.832Z,44.80
2023-03-17T12:32:57.686Z,45.90
2023-03-17T12:35:47.260Z,44.80
2023-03-17T12:38:39.727Z,44.80
2023-03-17T12:41:47.911Z,45.10
2023-03-17T12:44:53.777Z,44.80
2023-03-17T12:47:56.362Z,45.00
2023-03-17T12:51:08.003Z,46.20
2023-03-17T12:53:56.137Z,45.70
2023-03-17T12:56:47.952Z,47.00
2023-03-17T12:59:38.097Z,45.90
2023-03-17T13:02:37.002Z,45.80
2023-03-17T13:05:35.531Z,45.30
2023-03-17T13:08:31.481Z,45.70
2023-03-17T13:11:28.691Z,45.40
2023-03-17T13:14:25.729Z,45.70
2023-03-17T13:17:32.401Z,46.80
2023-03-17T13:20:19.797Z,47.10
2023-03-17T13:23:17.919Z,46.50
2023-03-17T13:26:07.292Z,46.40
2023-03-17T13:28:55.265Z,46.80
2023-03-17T13:31:43.473Z,47.60
2023-03-17T13:34:32.362Z,47.70
2023-03-17T13:37:26.589Z,47.30
2023-03-17T13:40:21.544Z,47.20
2023-03-17T13:43:30.119Z,47.30
2023-03-17T13:46:25.569Z,47.70
2023-03-17T13:49:24.363Z,47.70
2023-03-17T13:52:17.807Z,48.00
2023-03-17T13:55:08.040Z,48.00
2023-03-17T13:58:17.642Z,48.20
2023-03-17T14:01:14.816Z,48.50
2023-03-17T14:04:10.645Z,48.20
2023-03-17T14:07:07.426Z,49.20
2023-03-17T14:10:01.817Z,48.70
2023-03-17T14:12:58.338Z,48.40
2023-03-17T14:15:52.650Z,48.30
2023-03-17T14:18:44.499Z,48.40
2023-03-17T14:21:34.074Z,48.80
2023-03-17T14:24:24.794Z,49.60
2023-03-17T14:27:16.541Z,49.60
2023-03-17T14:30:20.967Z,50.20
2023-03-17T14:33:19.606Z,51.50
2023-03-17T14:36:14.580Z,50.20
2023-03-17T14:39:02.356Z,49.90
2023-03-17T14:42:00.966Z,50.40
2023-03-17T14:44:48.244Z,50.30
2023-03-17T14:47:40.850Z,50.90
2023-03-17T14:50:32.255Z,51.00
2023-03-17T14:53:22.702Z,51.30
2023-03-17T14:56:10.905Z,51.50
2023-03-17T14:59:09.863Z,51.70
2023-03-17T15:01:59.386Z,51.90
2023-03-17T15:04:55.379Z,52.50
2023-03-17T15:07:44.207Z,52.30
2023-03-17T15:10:45.162Z,52.20
2023-03-17T15:13:37.638Z,52.50
2023-03-17T15:16:29.553Z,52.90
2023-03-17T15:19:24.117Z,52.80
2023-03-17T15:22:27.015Z,53.30
2023-03-17T15:25:29.041Z,53.40
2023-03-17T15:28:20.471Z,53.20
2023-03-17T15:31:14.964Z,53.30
2023-03-17T15:34:03.187Z,53.30
2023-03-17T15:36:50.893Z,53.20
2023-03-17T15:39:39.628Z,53.50
2023-03-17T15:42:29.413Z,54.20
2023-03-17T15:45:19.360Z,53.90
2023-03-17T15:48:07.484Z,53.80
2023-03-17T15:50:57.309Z,54.10
2023-03-17T15:53:45.567Z,54.00
2023-03-17T15:56:34.774Z,54.80
2023-03-17T15:59:22.274Z,54.70
2023-03-17T16:05:17.465Z,54.50
2023-03-17T16:08:05.168Z,54.40
2023-03-17T16:10:53.577Z,54.40
2023-03-17T16:13:41.463Z,54.60
2023-03-17T16:16:34.803Z,54.70
2023-03-17T16:19:25.129Z,55.90
2023-03-17T16:22:40.355Z,55.20
2023-03-17T16:25:30.154Z,55.30
2023-03-17T16:28:19.908Z,56.20
2023-03-17T16:31:20.405Z,56.00
2023-03-17T16:34:18.173Z,56.10
2023-03-17T16:37:06.815Z,56.30
2023-03-17T16:39:56.142Z,56.40
2023-03-17T16:42:44.494Z,56.70
2023-03-17T16:45:34.144Z,56.80
2023-03-17T16:48:22.147Z,57.10
2023-03-17T16:51:09.899Z,57.50
2023-03-17T16:53:58.348Z,57.80
2023-03-17T16:56:48.027Z,58.10
2023-03-17T16:59:36.446Z,58.40
2023-03-17T17:02:24.321Z,58.60
2023-03-17T17:05:17.637Z,59.20
2023-03-17T17:08:06.347Z,59.50
2023-03-17T17:10:54.011Z,59.60
2023-03-17T17:13:45.196Z,70.20
2023-03-17T17:16:35.993Z,60.30
2023-03-17T17:19:23.745Z,60.50
2023-03-17T17:22:13.006Z,60.90
2023-03-17T17:25:00.463Z,61.20
2023-03-17T17:27:48.621Z,61.80
2023-03-17T17:30:43.457Z,62.00
2023-03-17T17:33:31.272Z,63.20
2023-03-17T17:36:19.410Z,63.70
2023-03-17T17:39:07.113Z,64.10
2023-03-17T17:41:54.741Z,64.10
2023-03-17T17:44:43.007Z,64.90
2023-03-17T17:47:32.878Z,65.50
2023-03-17T17:50:22.697Z,65.80
2023-03-17T17:53:12.500Z,66.10
2023-03-17T17:55:59.967Z,66.00
2023-03-17T17:58:47.880Z,66.20
2023-03-17T18:01:35.965Z,67.00
2023-03-17T18:04:25.866Z,67.00
2023-03-17T18:07:13.766Z,67.40
2023-03-17T18:10:01.735Z,67.90
2023-03-17T18:12:49.424Z,68.10
2023-03-17T18:15:38.029Z,68.40
2023-03-17T18:18:26.274Z,68.80
2023-03-17T18:21:16.845Z,69.10
2023-03-17T18:24:05.341Z,69.70
2023-03-17T18:26:53.228Z,70.10
2023-03-17T18:29:41.327Z,70.50
2023-03-17T18:32:30.537Z,70.60
2023-03-17T18:35:22.598Z,71.00
2023-03-17T18:38:11.714Z,71.40
2023-03-17T18:40:59.380Z,71.80
2023-03-17T18:43:46.907Z,72.30
2023-03-17T18:46:34.634Z,71.00
2023-03-17T18:49:24.401Z,72.70
2023-03-17T18:52:12.411Z,71.60
2023-03-17T18:55:01.948Z,73.10
2023-03-17T20:53:04.445Z,82.60
2023-03-17T20:55:52.608Z,83.50
2023-03-17T20:58:40.604Z,83.70
2023-03-17T21:01:29.773Z,83.80
2023-03-17T21:04:18.148Z,84.00
2023-03-17T21:07:05.956Z,84.20
2023-03-17T21:09:56.861Z,84.30
2023-03-17T21:12:44.409Z,84.60
2023-03-17T21:15:32.385Z,84.70
2023-03-17T21:18:20.252Z,85.00
2023-03-17T21:21:08.299Z,85.20
2023-03-17T21:23:57.270Z,85.20
2023-03-17T21:26:46.748Z,85.40
2023-03-17T21:29:36.656Z,85.60
2023-03-17T21:32:24.622Z,86.00
2023-03-17T21:35:13.507Z,86.30
2023-03-17T21:38:01.734Z,86.80
2023-03-17T21:40:49.631Z,87.00
2023-03-17T21:43:38.755Z,87.30
2023-03-17T21:46:26.969Z,87.50
2023-03-17T21:49:16.716Z,87.40
2023-03-17T21:52:04.890Z,87.60
2023-03-17T21:54:52.696Z,87.70
2023-03-17T21:57:40.848Z,88.20
2023-03-17T22:00:42.602Z,88.50
2023-03-17T22:03:33.719Z,88.40
2023-03-17T22:06:23.456Z,88.40
2023-03-17T22:09:13.511Z,88.60
2023-03-17T22:12:01.039Z,88.70
2023-03-17T22:14:49.185Z,88.90
2023-03-17T22:17:39.971Z,89.50
2023-03-17T22:20:27.937Z,89.50
2023-03-17T22:23:15.617Z,89.70
2023-03-17T22:26:03.457Z,90.00
2023-03-17T22:28:52.300Z,90.00
2023-03-17T22:31:40.117Z,90.00
2023-03-17T22:34:29.363Z,90.00
2023-03-17T22:37:17.009Z,90.10
2023-03-17T22:40:06.641Z,90.00
2023-03-17T22:42:57.739Z,90.10
2023-03-17T22:45:46.545Z,90.10
2023-03-17T22:48:36.346Z,90.10
2023-03-17T22:51:26.782Z,90.10
2023-03-17T22:54:15.115Z,90.20
2023-03-17T22:57:04.524Z,90.30
2023-03-17T22:59:55.735Z,90.30
2023-03-17T23:02:44.131Z,90.40
2023-03-17T23:05:32.341Z,90.40
2023-03-17T23:08:22.780Z,90.40
2023-03-17T23:11:13.853Z,90.50
2023-03-17T23:14:01.850Z,90.50
2023-03-17T23:16:49.381Z,90.50
2023-03-17T23:19:37.223Z,90.60
2023-03-17T23:22:25.072Z,90.60
2023-03-17T23:25:14.742Z,90.80
2023-03-17T23:28:02.533Z,90.80
2023-03-17T23:30:50.699Z,90.80
2023-03-17T23:33:39.209Z,90.90
2023-03-17T23:36:26.968Z,91.00
2023-03-17T23:39:14.749Z,91.00
2023-03-17T23:42:04.363Z,91.00
2023-03-17T23:44:52.641Z,91.10
2023-03-17T23:47:40.920Z,91.10
2023-03-17T23:50:28.706Z,91.20
2023-03-17T23:53:16.796Z,91.20
2023-03-17T23:56:05.172Z,91.20
2023-03-17T23:58:55.079Z,91.30
